Terminal Aerodrome Forecast
Issued by NWS

Home | Current Version | Previous Version | Text Only | Print | Product List | Glossary On
Versions: 1 2 3 4 5 6 7 8 9 10 11 12 13 14 15 16 17 18 19 20 21
000
FTUS44 KMAF 200500
TAFFST
TAF
KFST 200520Z 2006/2106 15009KT P6SM SCT050 OVC100
      TEMPO 2006/2008 VRB15G25KT 6SM TSRA BKN035CB=

USA.gov is the U.S. government's official web portal to all federal, state and local government web resources and services.